createdAt,value
2023-01-22T00:10:07.412Z,1.87
2023-01-22T00:11:07.810Z,2.06
2023-01-22T00:12:09.300Z,1.95
2023-01-22T00:13:07.904Z,1.99
2023-01-22T00:14:07.717Z,1.99
2023-01-22T00:15:08.861Z,1.94
2023-01-22T00:16:07.778Z,2.04
2023-01-22T00:17:07.076Z,2.16
2023-01-22T00:18:07.630Z,2.35
2023-01-22T00:19:07.882Z,2.55
2023-01-22T00:20:07.590Z,2.60
2023-01-22T00:21:30.201Z,2.52
2023-01-22T00:22:08.486Z,2.37
2023-01-22T00:23:29.358Z,2.43
2023-01-22T00:24:07.581Z,2.60
2023-01-22T00:25:29.446Z,2.60
2023-01-22T00:26:07.642Z,2.64
2023-01-22T00:27:29.239Z,2.68
2023-01-22T00:28:08.661Z,2.76
2023-01-22T00:29:28.771Z,2.79
2023-01-22T00:30:07.640Z,2.81
2023-01-22T00:31:29.575Z,2.70
2023-01-22T00:32:07.909Z,2.57
2023-01-22T00:33:29.180Z,2.58
2023-01-22T00:34:07.630Z,2.50
2023-01-22T00:35:29.149Z,2.40
2023-01-22T00:36:07.874Z,2.31
2023-01-22T00:37:07.522Z,2.20
2023-01-22T00:38:29.089Z,2.22
2023-01-22T00:39:08.531Z,2.31
2023-01-22T00:40:29.010Z,2.29
2023-01-22T00:41:08.451Z,2.06
2023-01-22T00:42:29.951Z,2.09
2023-01-22T00:43:07.411Z,2.27
2023-01-22T00:44:28.980Z,2.27
2023-01-22T00:45:08.471Z,2.20
2023-01-22T00:46:29.013Z,2.21
2023-01-22T00:47:08.520Z,2.35
2023-01-22T00:48:29.458Z,2.43
2023-01-22T00:49:07.440Z,2.49
2023-01-22T00:50:29.073Z,2.60
2023-01-22T00:51:08.589Z,2.71
2023-01-22T00:52:29.022Z,2.85
2023-01-22T00:53:07.491Z,3.00
2023-01-22T00:54:28.930Z,3.03
2023-01-22T00:55:07.429Z,2.96
2023-01-22T00:56:29.211Z,2.88
2023-01-22T00:57:07.655Z,2.63
2023-01-22T00:58:06.736Z,2.39
2023-01-22T00:59:29.664Z,2.32
2023-01-22T01:00:06.770Z,2.17
2023-01-22T01:01:28.763Z,2.22
2023-01-22T01:02:07.328Z,2.39
2023-01-22T08:15:10.538Z,3.07
2023-01-22T08:16:10.031Z,2.82
2023-01-22T08:17:09.673Z,2.74
2023-01-22T08:18:09.915Z,2.47
2023-01-22T08:19:15.814Z,2.42
2023-01-22T08:20:10.845Z,2.52
2023-01-22T08:21:09.400Z,2.67
2023-01-22T08:22:10.638Z,2.71
2023-01-22T08:23:09.378Z,2.52
2023-01-22T08:24:11.004Z,2.70
2023-01-22T08:25:09.372Z,2.67
2023-01-22T08:26:09.469Z,2.71
2023-01-22T08:27:09.564Z,2.78
2023-01-22T08:28:09.565Z,2.76
2023-01-22T08:29:10.176Z,2.78
2023-01-22T08:30:09.534Z,2.89
2023-01-22T08:31:16.328Z,2.94
2023-01-22T08:32:09.749Z,2.97
2023-01-22T08:33:09.405Z,3.14
2023-01-22T08:34:09.302Z,3.15
2023-01-22T08:35:09.496Z,3.12
2023-01-22T08:36:10.515Z,2.96
2023-01-22T08:37:09.347Z,3.04
2023-01-22T08:38:09.431Z,3.10
2023-01-22T08:39:09.411Z,3.09
2023-01-22T08:40:09.524Z,2.92
2023-01-22T08:41:09.361Z,2.83
2023-01-22T08:42:09.331Z,2.86
2023-01-22T08:43:09.619Z,2.79
2023-01-22T08:44:09.341Z,2.74
2023-01-22T08:45:09.294Z,2.78
2023-01-22T08:46:09.559Z,2.99
2023-01-22T08:47:09.093Z,3.12
2023-01-22T08:48:09.321Z,3.15
2023-01-22T08:49:09.083Z,3.17
2023-01-22T08:50:09.287Z,3.25
2023-01-22T08:51:09.256Z,3.35
2023-01-22T08:52:09.304Z,3.33
2023-01-22T08:53:09.450Z,3.35
2023-01-22T08:54:09.570Z,3.37
2023-01-22T08:55:09.310Z,3.28
2023-01-22T08:56:09.252Z,3.33
2023-01-22T08:57:09.190Z,3.40
2023-01-22T08:58:09.143Z,3.44
2023-01-22T08:59:10.002Z,3.59
2023-01-22T09:00:09.325Z,3.54
2023-01-22T09:01:09.967Z,3.51
2023-01-22T09:02:09.122Z,3.47
2023-01-22T09:03:09.078Z,3.52
2023-01-22T09:04:08.864Z,3.59
2023-01-22T09:05:09.066Z,3.46
2023-01-22T09:06:10.932Z,3.46
2023-01-22T09:07:09.172Z,3.56
2023-01-22T09:08:08.971Z,3.66
2023-01-22T09:09:09.091Z,3.65
2023-01-22T09:10:08.880Z,3.41
2023-01-22T09:11:10.065Z,3.22
2023-01-22T09:12:09.214Z,3.36
2023-01-22T09:13:09.035Z,3.33
2023-01-22T09:14:08.907Z,3.41
2023-01-22T09:15:10.267Z,3.37
2023-01-22T09:16:08.900Z,3.25
2023-01-22T09:17:08.755Z,2.82
2023-01-22T09:18:09.076Z,2.70
2023-01-22T09:19:09.967Z,2.64
2023-01-22T09:20:08.973Z,2.85
2023-01-22T09:24:28.074Z,3.27
2023-01-22T09:25:28.263Z,3.37
2023-01-22T09:26:28.499Z,3.48
2023-01-22T09:27:28.254Z,3.64
2023-01-22T09:28:28.455Z,3.72
2023-01-22T09:29:29.263Z,3.80
2023-01-22T09:30:28.363Z,3.83
2023-01-22T09:31:28.476Z,3.64
2023-01-22T09:32:28.427Z,3.59
2023-01-22T09:33:28.266Z,3.58
2023-01-22T09:34:28.045Z,3.55
2023-01-22T09:35:28.368Z,3.65
2023-01-22T09:36:28.094Z,3.73
2023-01-22T09:37:28.327Z,3.82
2023-01-22T09:38:28.073Z,3.86
2023-01-22T09:39:28.283Z,3.86
2023-01-22T09:40:28.457Z,3.92
2023-01-22T09:41:28.358Z,3.65
2023-01-22T09:42:28.094Z,3.52
2023-01-22T09:43:28.229Z,3.58
2023-01-22T09:44:28.275Z,3.54
2023-01-22T09:45:28.222Z,3.36
2023-01-22T09:46:28.184Z,3.19
2023-01-22T09:47:28.503Z,3.17
2023-01-22T09:48:28.102Z,2.96
2023-01-22T09:49:28.695Z,2.76
2023-01-22T09:50:28.128Z,2.63
2023-01-22T09:51:27.955Z,2.46
2023-01-22T09:52:28.165Z,2.47
2023-01-22T09:53:27.993Z,2.63
2023-01-22T09:54:28.064Z,2.97
2023-01-22T09:55:28.283Z,3.03
2023-01-22T09:56:28.143Z,3.21
2023-01-22T09:57:32.410Z,3.41
2023-01-22T09:58:49.464Z,3.55
2023-01-22T09:59:28.146Z,3.72
2023-01-22T10:00:28.013Z,3.65
2023-01-22T10:01:27.972Z,3.56
2023-01-22T10:02:28.245Z,3.55
2023-01-22T10:03:28.042Z,3.74
2023-01-22T10:04:28.083Z,3.86
2023-01-22T10:05:27.956Z,3.95
2023-01-22T10:06:27.742Z,3.91
2023-01-22T10:07:28.048Z,3.97
2023-01-22T10:08:27.918Z,4.01
2023-01-22T10:09:28.031Z,4.05
2023-01-22T10:10:27.783Z,4.12
2023-01-22T10:11:28.008Z,4.20
2023-01-22T10:12:27.885Z,4.15
2023-01-22T10:13:28.972Z,4.02
2023-01-22T10:14:27.822Z,3.86
2023-01-22T10:15:27.848Z,3.72
2023-01-22T10:16:28.060Z,3.73
2023-01-22T10:17:27.914Z,3.73
2023-01-22T10:18:28.187Z,3.59
2023-01-22T10:19:27.976Z,3.58
2023-01-22T10:20:27.873Z,3.58
2023-01-22T10:21:27.726Z,3.72
2023-01-22T10:22:27.806Z,3.70
2023-01-22T10:23:27.722Z,3.70
2023-01-22T10:24:27.814Z,3.66
2023-01-22T10:25:27.633Z,3.62
2023-01-22T10:26:27.884Z,3.62
2023-01-22T10:27:27.673Z,3.59
2023-01-22T10:28:27.762Z,3.52
2023-01-22T10:29:27.625Z,3.41
2023-01-22T10:30:27.854Z,3.44
2023-01-22T10:31:27.858Z,3.58
2023-01-22T10:32:27.893Z,3.54
2023-01-22T10:33:27.937Z,3.29
2023-01-22T10:34:27.783Z,3.44
2023-01-22T10:35:27.625Z,3.68
2023-01-22T10:36:27.687Z,3.77
2023-01-22T10:37:27.638Z,3.82
2023-01-22T10:38:27.558Z,3.84
2023-01-22T10:39:27.674Z,3.68
2023-01-22T10:40:27.625Z,3.72
2023-01-22T10:41:27.613Z,3.55
2023-01-22T10:42:27.614Z,3.21
2023-01-22T10:43:27.621Z,3.17
2023-01-22T10:44:27.659Z,3.32
2023-01-22T10:45:27.592Z,3.44
2023-01-22T10:46:27.496Z,3.56
2023-01-22T10:47:27.699Z,3.43
2023-01-22T10:48:27.563Z,3.48
2023-01-22T10:49:27.607Z,3.29
2023-01-22T10:50:27.584Z,3.18
2023-01-22T10:51:27.721Z,3.24
2023-01-22T10:52:27.432Z,3.22
2023-01-22T10:53:27.312Z,3.46
2023-01-22T10:54:27.543Z,3.55
2023-01-22T10:55:27.602Z,3.66
2023-01-22T10:56:27.616Z,3.92
2023-01-22T10:57:27.412Z,4.05
2023-01-22T10:58:27.464Z,3.76
2023-01-22T10:59:28.547Z,3.46
2023-01-22T11:00:27.805Z,3.29
2023-01-22T11:01:27.485Z,3.29
2023-01-22T11:02:27.839Z,3.37
2023-01-22T11:03:27.685Z,3.07
2023-01-22T11:04:27.704Z,2.97
2023-01-22T11:05:27.357Z,2.89
2023-01-22T11:06:27.616Z,2.91
2023-01-22T11:07:27.535Z,2.82
2023-01-22T11:08:27.342Z,2.76
2023-01-22T11:09:27.303Z,2.99
2023-01-22T11:10:27.156Z,3.10
2023-01-22T11:11:27.353Z,3.19
2023-01-22T11:12:27.702Z,3.14
2023-01-22T11:13:27.294Z,3.09
2023-01-22T11:14:27.120Z,3.15
2023-01-22T11:15:27.312Z,3.10
2023-01-22T11:16:27.139Z,3.09
2023-01-22T11:17:27.293Z,3.18
2023-01-22T11:18:27.204Z,3.10
2023-01-22T11:19:36.949Z,2.94
2023-01-22T11:20:27.092Z,3.04
2023-01-22T11:21:27.232Z,3.07
2023-01-22T11:22:27.192Z,2.91
2023-01-22T11:23:27.244Z,2.88
2023-01-22T11:24:27.191Z,2.82
2023-01-22T11:25:27.112Z,2.99
2023-01-22T11:26:27.253Z,2.86
2023-01-22T11:27:26.382Z,2.86
2023-01-22T11:28:27.159Z,2.79
2023-01-22T11:29:27.133Z,2.70
2023-01-22T11:30:27.802Z,2.70
2023-01-22T11:31:27.405Z,2.60
2023-01-22T11:32:27.413Z,2.70
2023-01-22T11:33:27.237Z,2.79
2023-01-22T11:34:27.195Z,2.82
2023-01-22T11:35:27.144Z,2.67
2023-01-22T11:36:27.148Z,2.85
2023-01-22T11:37:27.102Z,3.09
2023-01-22T11:38:27.104Z,3.32
2023-01-22T11:39:27.084Z,3.32
2023-01-22T11:40:26.803Z,3.12
2023-01-22T11:41:26.994Z,2.83
2023-01-22T11:42:26.915Z,2.96
2023-01-22T11:43:27.094Z,3.00
2023-01-22T11:44:26.813Z,2.79
2023-01-22T11:45:27.116Z,2.67
2023-01-22T11:46:27.870Z,2.63
2023-01-22T11:47:26.965Z,2.46
2023-01-22T11:48:26.932Z,2.71
2023-01-22T11:49:27.039Z,2.65
2023-01-22T11:50:26.873Z,2.81
2023-01-22T11:51:26.945Z,2.83
2023-01-22T11:52:26.841Z,2.97
2023-01-22T11:53:26.892Z,3.24
2023-01-22T11:54:26.824Z,3.19
2023-01-22T11:55:26.922Z,3.00
2023-01-22T11:56:27.174Z,2.86
2023-01-22T11:57:26.764Z,2.76
2023-01-22T11:58:27.323Z,2.58
2023-01-22T11:59:26.753Z,2.55
2023-01-22T12:00:27.048Z,2.76
2023-01-22T12:01:26.983Z,2.76
2023-01-22T12:02:26.982Z,2.94
2023-01-22T12:03:27.377Z,2.94
2023-01-22T12:04:27.093Z,2.83
2023-01-22T12:05:26.752Z,2.89
2023-01-22T12:06:27.080Z,2.70
2023-01-22T12:07:26.654Z,2.78
2023-01-22T12:08:27.075Z,2.83
2023-01-22T12:09:27.579Z,3.03
2023-01-22T12:10:26.932Z,3.00
2023-01-22T12:11:27.088Z,3.10
2023-01-22T12:12:27.191Z,2.88
2023-01-22T12:13:26.971Z,2.86
2023-01-22T12:14:26.805Z,2.91
2023-01-22T12:15:26.792Z,2.81
2023-01-22T12:16:26.512Z,2.96
2023-01-22T12:17:26.675Z,2.76
2023-01-22T12:18:26.596Z,2.91
2023-01-22T12:19:27.382Z,3.14
2023-01-22T12:20:27.183Z,3.07
2023-01-22T12:21:27.603Z,3.03
2023-01-22T12:22:26.688Z,2.89
2023-01-22T12:23:26.653Z,2.99
2023-01-22T12:24:26.493Z,3.03
2023-01-22T12:25:26.603Z,2.99
2023-01-22T12:26:26.498Z,2.94
2023-01-22T12:27:26.402Z,2.89
2023-01-22T12:28:26.627Z,2.71
2023-01-22T12:29:26.343Z,2.68
2023-01-22T12:30:26.552Z,2.92
2023-01-22T12:31:26.477Z,3.18
2023-01-22T12:32:26.476Z,3.17
2023-01-22T12:33:25.762Z,3.18
2023-01-22T12:34:26.495Z,3.24
2023-01-22T12:35:26.393Z,3.40
2023-01-22T12:36:25.663Z,3.24
2023-01-22T12:37:25.993Z,3.10
2023-01-22T12:38:25.708Z,2.85
2023-01-22T12:39:26.675Z,2.67
2023-01-22T12:40:26.045Z,2.83
2023-01-22T12:41:26.412Z,3.04
2023-01-22T12:42:26.612Z,2.96
2023-01-22T12:43:26.423Z,2.79
2023-01-22T12:44:26.760Z,2.76
2023-01-22T12:45:25.576Z,2.78
2023-01-22T12:46:26.347Z,2.89
2023-01-22T12:47:26.392Z,2.85
2023-01-22T12:48:26.332Z,3.00
2023-01-22T12:49:27.221Z,3.03
2023-01-22T12:50:26.332Z,2.85
2023-01-22T12:51:26.373Z,2.68
2023-01-22T12:52:26.144Z,2.82
2023-01-22T12:53:26.012Z,2.85
2023-01-22T12:54:26.253Z,2.61
2023-01-22T12:55:26.395Z,2.63
2023-01-22T12:56:26.274Z,2.96
2023-01-22T12:57:26.307Z,3.00
2023-01-22T12:58:26.173Z,2.94
2023-01-22T12:59:26.024Z,2.94
2023-01-22T13:00:26.181Z,2.99
2023-01-22T13:01:26.123Z,2.81
2023-01-22T13:02:26.392Z,2.61
2023-01-22T13:03:31.778Z,2.58
2023-01-22T13:04:26.575Z,2.91
2023-01-22T13:05:26.065Z,3.03
2023-01-22T13:06:26.134Z,2.97
2023-01-22T13:07:26.075Z,2.85
2023-01-22T13:08:26.248Z,2.91
2023-01-22T13:09:26.015Z,2.88
2023-01-22T13:10:26.302Z,2.74
2023-01-22T13:11:26.086Z,2.91
2023-01-22T13:12:26.120Z,3.09
2023-01-22T13:13:25.294Z,3.21
2023-01-22T13:14:25.952Z,3.35
2023-01-22T13:15:26.015Z,3.29
2023-01-22T13:16:25.949Z,3.28
2023-01-22T13:17:26.123Z,3.17
2023-01-22T13:18:25.917Z,3.14
2023-01-22T13:19:26.076Z,3.04
2023-01-22T13:20:25.853Z,3.07
2023-01-22T13:21:26.149Z,3.21
2023-01-22T13:22:26.075Z,3.28
2023-01-22T13:23:26.036Z,3.32
2023-01-22T13:24:25.898Z,3.27
2023-01-22T13:25:26.023Z,3.33
2023-01-22T13:26:25.853Z,3.28
2023-01-22T13:27:26.968Z,3.36
2023-01-22T13:28:25.848Z,3.40
2023-01-22T13:29:27.285Z,3.27
2023-01-22T13:30:26.063Z,3.25
2023-01-22T13:31:25.828Z,3.24
2023-01-22T13:32:25.128Z,3.09
2023-01-22T13:33:26.012Z,3.15
2023-01-22T13:34:25.876Z,3.25
2023-01-22T13:35:25.836Z,3.12
2023-01-22T13:36:25.904Z,3.27
2023-01-22T13:37:26.019Z,3.37
2023-01-22T13:38:26.103Z,3.36
2023-01-22T13:39:25.704Z,3.41
2023-01-22T13:40:25.963Z,3.28
2023-01-22T13:41:25.774Z,3.17
2023-01-22T13:42:25.993Z,3.09
2023-01-22T13:43:25.847Z,3.04
2023-01-22T13:44:25.764Z,3.01
2023-01-22T13:45:25.723Z,3.12
2023-01-22T13:46:25.627Z,3.06
2023-01-22T13:47:25.785Z,3.07
2023-01-22T13:48:25.704Z,3.17
2023-01-22T13:49:25.705Z,3.32
2023-01-22T13:50:25.732Z,3.27
2023-01-22T13:51:25.736Z,3.48
2023-01-22T13:52:25.553Z,3.48
2023-01-22T13:53:25.925Z,3.40
2023-01-22T13:54:25.562Z,3.17
2023-01-22T13:55:25.603Z,3.21
2023-01-22T13:56:25.563Z,3.04
2023-01-22T13:57:25.661Z,3.01
2023-01-22T13:58:29.005Z,3.10
2023-01-22T13:59:25.603Z,3.19
2023-01-22T14:00:25.594Z,3.04
2023-01-22T14:01:25.602Z,3.17
2023-01-22T14:02:25.607Z,3.15
2023-01-22T14:03:25.504Z,3.21
2023-01-22T14:04:25.623Z,3.41
2023-01-22T14:05:25.455Z,3.43
2023-01-22T14:06:25.803Z,3.44
2023-01-22T14:07:25.372Z,3.35
2023-01-22T14:08:25.544Z,3.33
2023-01-22T14:09:25.407Z,3.28
2023-01-22T14:10:25.663Z,3.32
2023-01-22T14:11:25.416Z,3.36
2023-01-22T14:12:25.612Z,3.29
2023-01-22T14:13:25.345Z,3.25
2023-01-22T14:14:25.474Z,3.28
2023-01-22T14:15:25.369Z,3.43
2023-01-22T14:16:25.594Z,3.35
2023-01-22T14:17:25.420Z,3.32
2023-01-22T14:18:25.482Z,3.35
2023-01-22T14:19:25.448Z,3.24
2023-01-22T14:20:25.282Z,3.36
2023-01-22T14:21:25.583Z,3.36
2023-01-22T14:22:25.287Z,3.40
2023-01-22T14:23:25.362Z,3.37
2023-01-22T14:24:25.382Z,3.32
2023-01-22T14:25:25.484Z,3.35
2023-01-22T14:26:25.273Z,3.10
2023-01-22T14:27:25.344Z,3.09
2023-01-22T14:28:25.352Z,3.06
2023-01-22T14:29:25.299Z,3.15
2023-01-22T14:30:25.274Z,3.12
2023-01-22T14:31:25.371Z,3.17
2023-01-22T14:32:25.244Z,3.21
2023-01-22T14:33:25.147Z,3.25
2023-01-22T14:34:25.362Z,3.27
2023-01-22T14:35:25.105Z,3.28
2023-01-22T14:36:25.375Z,3.40
2023-01-22T14:37:25.172Z,3.37
2023-01-22T14:38:25.337Z,3.43
2023-01-22T14:39:25.052Z,3.29
2023-01-22T14:40:25.444Z,3.25
2023-01-22T14:41:25.066Z,3.46
2023-01-22T14:42:25.142Z,3.44
2023-01-22T14:43:25.052Z,3.51
2023-01-22T14:44:25.228Z,3.56
2023-01-22T14:45:25.167Z,3.77
2023-01-22T14:46:25.184Z,3.79
2023-01-22T14:47:25.043Z,3.73
2023-01-22T14:48:25.342Z,3.68
2023-01-22T14:49:25.128Z,3.48
2023-01-22T14:50:24.914Z,3.41
2023-01-22T14:51:25.214Z,3.47
2023-01-22T14:52:24.866Z,3.47
2023-01-22T14:53:25.071Z,3.48
2023-01-22T14:54:24.874Z,3.43
2023-01-22T14:55:25.106Z,3.35
2023-01-22T14:56:24.994Z,3.35
2023-01-22T14:57:25.163Z,3.33
2023-01-22T14:58:24.864Z,3.35
2023-01-22T14:59:25.137Z,3.29
2023-01-22T15:00:25.012Z,3.14
2023-01-22T15:01:25.015Z,2.92
2023-01-22T15:02:25.183Z,2.97
2023-01-22T15:03:25.153Z,2.92
2023-01-22T15:04:25.216Z,3.03
2023-01-22T15:05:25.064Z,3.07
2023-01-22T15:06:24.922Z,3.18
2023-01-22T15:07:24.795Z,2.94
2023-01-22T15:08:25.473Z,2.96
2023-01-22T15:09:24.848Z,2.89
2023-01-22T15:10:25.006Z,2.83
2023-01-22T15:11:24.833Z,2.96
2023-01-22T15:12:24.907Z,3.17
2023-01-22T15:13:24.752Z,3.25
2023-01-22T15:14:25.064Z,3.25
2023-01-22T15:15:24.823Z,3.25
2023-01-22T15:16:24.893Z,3.28
2023-01-22T15:17:25.531Z,3.14
2023-01-22T15:18:24.863Z,3.04
2023-01-22T15:19:24.704Z,3.18
2023-01-22T15:20:24.956Z,3.19
2023-01-22T15:21:24.840Z,3.19
2023-01-22T15:22:24.673Z,3.18
2023-01-22T15:23:24.739Z,3.09
2023-01-22T15:24:26.648Z,3.04
2023-01-22T15:25:24.753Z,3.01
2023-01-22T15:26:24.614Z,3.03
2023-01-22T15:27:24.698Z,3.18
2023-01-22T15:28:24.672Z,3.37
2023-01-22T15:29:24.755Z,3.43
2023-01-22T15:30:24.687Z,3.33
2023-01-22T15:31:25.101Z,3.15
2023-01-22T15:32:24.595Z,3.06
2023-01-22T15:33:24.662Z,3.10
2023-01-22T15:34:24.612Z,3.19
2023-01-22T15:35:24.620Z,3.19
2023-01-22T15:36:24.690Z,3.21
2023-01-22T15:37:24.765Z,3.21
2023-01-22T15:38:24.603Z,3.18
2023-01-22T15:39:25.024Z,3.01
2023-01-22T15:40:24.684Z,2.92
2023-01-22T15:41:24.534Z,2.81
2023-01-22T15:42:24.682Z,2.76
2023-01-22T15:43:24.518Z,2.85
2023-01-22T15:44:24.846Z,2.99
2023-01-22T15:45:24.922Z,3.15
2023-01-22T15:46:24.564Z,3.40
2023-01-22T15:47:24.382Z,3.55
2023-01-22T15:48:24.822Z,3.58
2023-01-22T15:49:24.814Z,3.61
2023-01-22T15:50:24.603Z,3.64
2023-01-22T15:51:24.586Z,3.56
2023-01-22T15:52:24.254Z,3.56
2023-01-22T15:53:24.992Z,3.32
2023-01-22T15:54:25.834Z,3.35
2023-01-22T15:55:24.722Z,3.37
2023-01-22T15:56:24.314Z,3.43
2023-01-22T15:57:24.892Z,3.44
2023-01-22T15:58:24.709Z,3.56
2023-01-22T15:59:24.594Z,3.74
2023-01-22T16:00:24.302Z,3.86
2023-01-22T16:01:24.430Z,3.74
2023-01-22T16:02:24.284Z,3.65
2023-01-22T16:03:24.394Z,3.55
2023-01-22T16:04:24.358Z,3.58
2023-01-22T16:05:24.426Z,3.62
2023-01-22T16:06:24.273Z,3.62
2023-01-22T16:07:24.331Z,3.62
2023-01-22T16:08:24.252Z,3.59
2023-01-22T16:09:24.232Z,3.55
2023-01-22T16:10:24.705Z,3.54
2023-01-22T16:11:24.178Z,3.44
2023-01-22T16:12:24.284Z,3.15
2023-01-22T16:13:24.403Z,3.15
2023-01-22T16:14:24.243Z,3.14
2023-01-22T16:15:24.096Z,2.99
2023-01-22T16:16:24.312Z,2.91
2023-01-22T16:17:24.124Z,3.06
2023-01-22T16:18:24.233Z,2.94
2023-01-22T16:19:24.333Z,3.04
2023-01-22T16:20:24.272Z,3.01
2023-01-22T16:21:24.352Z,3.01
2023-01-22T16:22:24.181Z,3.21
2023-01-22T16:23:24.145Z,3.22
2023-01-22T16:24:23.923Z,3.35
2023-01-22T16:25:24.128Z,3.19
2023-01-22T16:26:24.310Z,3.09
2023-01-22T16:27:24.152Z,3.09
2023-01-22T16:28:23.896Z,3.18
2023-01-22T16:29:24.102Z,3.21
2023-01-22T16:30:24.242Z,3.25
2023-01-22T16:31:24.291Z,3.12
2023-01-22T16:32:24.341Z,3.25
2023-01-22T16:33:24.053Z,3.46
2023-01-22T16:34:23.915Z,3.61
2023-01-22T16:35:24.194Z,3.70
2023-01-22T16:36:23.929Z,3.68
2023-01-22T16:37:24.053Z,3.72
2023-01-22T16:38:24.285Z,3.74
2023-01-22T16:39:24.017Z,3.54
2023-01-22T16:40:24.313Z,3.59
2023-01-22T16:41:25.543Z,3.52
2023-01-22T16:42:24.338Z,3.48
2023-01-22T16:43:24.021Z,3.52
2023-01-22T16:44:23.966Z,3.37
2023-01-22T16:45:23.753Z,3.35
2023-01-22T16:46:24.379Z,3.41
2023-01-22T16:47:23.772Z,3.54
2023-01-22T16:48:24.372Z,3.35
2023-01-22T16:49:23.782Z,3.41
2023-01-22T16:50:24.029Z,3.37
2023-01-22T16:51:25.138Z,3.41
2023-01-22T16:52:24.356Z,3.47
2023-01-22T16:53:23.894Z,3.47
2023-01-22T16:54:23.843Z,3.47
2023-01-22T16:55:23.892Z,3.56
2023-01-22T16:56:23.667Z,3.40
2023-01-22T16:57:24.041Z,3.40
2023-01-22T16:58:23.713Z,3.44
2023-01-22T16:59:23.892Z,3.46
2023-01-22T17:00:23.654Z,3.43
2023-01-22T17:01:23.813Z,3.40
2023-01-22T17:02:23.614Z,3.33
2023-01-22T17:03:23.682Z,3.22
2023-01-22T17:04:23.604Z,3.22
2023-01-22T17:05:23.836Z,3.18
2023-01-22T17:06:23.815Z,2.94
2023-01-22T17:07:33.215Z,2.85
2023-01-22T17:08:23.643Z,2.79
2023-01-22T17:09:23.710Z,2.61
2023-01-22T17:10:23.678Z,2.57
2023-01-22T17:11:23.561Z,2.60
2023-01-22T17:12:23.713Z,2.67
2023-01-22T17:13:23.455Z,2.53
2023-01-22T17:14:23.684Z,2.49
2023-01-22T17:15:23.623Z,2.47
2023-01-22T17:16:23.642Z,2.50
2023-01-22T17:17:23.484Z,2.57
2023-01-22T17:18:23.794Z,2.58
2023-01-22T17:19:24.043Z,2.58
2023-01-22T17:20:23.553Z,2.58
2023-01-22T17:21:23.495Z,2.58
2023-01-22T17:22:23.576Z,2.61
2023-01-22T17:23:23.493Z,2.58
2023-01-22T17:24:23.655Z,2.61
2023-01-22T17:25:23.424Z,2.60
2023-01-22T17:26:23.553Z,2.61
2023-01-22T17:27:23.484Z,2.61
2023-01-22T17:28:23.292Z,2.61
2023-01-22T17:29:23.472Z,2.53
2023-01-22T17:30:23.282Z,2.52
2023-01-22T17:31:23.625Z,2.50
2023-01-22T17:32:23.352Z,2.52
2023-01-22T17:33:23.497Z,2.49
2023-01-22T17:34:23.382Z,2.50
2023-01-22T17:35:23.421Z,2.52
2023-01-22T17:36:23.264Z,2.55
2023-01-22T17:37:23.365Z,2.49
2023-01-22T17:38:23.313Z,2.39
2023-01-22T17:39:23.583Z,2.31
2023-01-22T17:40:23.422Z,2.40
2023-01-22T17:41:23.381Z,2.52
2023-01-22T17:42:23.442Z,2.64
2023-01-22T17:43:23.152Z,2.65
2023-01-22T17:44:23.372Z,2.70
2023-01-22T17:45:23.216Z,2.73
2023-01-22T17:46:23.339Z,2.64
2023-01-22T17:47:23.278Z,2.61
2023-01-22T17:48:23.685Z,2.49
2023-01-22T17:49:23.206Z,2.53
2023-01-22T17:50:23.302Z,2.57
2023-01-22T17:51:23.210Z,2.53
2023-01-22T17:52:23.631Z,2.52
2023-01-22T17:53:23.113Z,2.39
2023-01-22T17:54:23.355Z,2.40
2023-01-22T17:55:23.133Z,2.46
2023-01-22T17:56:23.422Z,2.43
2023-01-22T17:57:23.326Z,2.47
2023-01-22T17:58:23.373Z,2.50
2023-01-22T17:59:23.143Z,2.53
2023-01-22T18:00:23.009Z,2.40
2023-01-22T18:01:23.187Z,2.39
2023-01-22T18:02:23.638Z,2.34
2023-01-22T18:03:23.202Z,2.40
2023-01-22T18:04:23.083Z,2.42
2023-01-22T18:05:23.174Z,2.35
2023-01-22T18:06:23.044Z,2.40
2023-01-22T18:07:23.272Z,2.42
2023-01-22T18:08:23.072Z,2.45
2023-01-22T18:09:23.091Z,2.45
2023-01-22T18:10:23.073Z,2.43
2023-01-22T18:11:23.101Z,2.37
2023-01-22T18:12:23.070Z,2.35
2023-01-22T18:13:23.091Z,2.39
2023-01-22T18:14:23.181Z,2.42
2023-01-22T18:15:22.841Z,2.42
2023-01-22T18:16:23.371Z,2.43
2023-01-22T18:17:22.814Z,2.43
2023-01-22T18:18:22.982Z,2.43
2023-01-22T18:19:22.796Z,2.43
2023-01-22T18:20:23.073Z,2.43
2023-01-22T18:21:22.824Z,2.45
2023-01-22T18:22:22.981Z,2.47
2023-01-22T18:23:22.793Z,2.34
2023-01-22T18:24:23.236Z,2.28
2023-01-22T18:25:22.904Z,2.22
2023-01-22T18:26:23.271Z,2.21
2023-01-22T18:27:22.973Z,2.20
2023-01-22T18:28:22.894Z,2.21
2023-01-22T18:29:22.842Z,2.20
2023-01-22T18:30:23.034Z,2.13
2023-01-22T18:31:23.009Z,2.13
2023-01-22T18:32:22.632Z,2.11
2023-01-22T18:33:23.002Z,2.13
2023-01-22T18:34:22.624Z,2.13
2023-01-22T18:35:22.825Z,2.16
2023-01-22T18:36:22.664Z,2.21
2023-01-22T18:37:22.813Z,2.20
2023-01-22T18:38:22.622Z,2.24
2023-01-22T18:39:22.831Z,2.22
2023-01-22T18:40:22.621Z,2.25
2023-01-22T18:41:22.771Z,2.13
2023-01-22T18:42:23.037Z,1.99
2023-01-22T18:43:22.833Z,1.90
2023-01-22T18:44:22.627Z,1.87
2023-01-22T18:45:22.902Z,1.85
2023-01-22T18:46:22.708Z,1.84
2023-01-22T18:47:22.661Z,1.79
2023-01-22T18:48:22.733Z,1.76
2023-01-22T18:49:22.522Z,1.72
2023-01-22T18:50:22.829Z,1.70
2023-01-22T18:51:22.581Z,1.65
2023-01-22T18:52:22.792Z,1.58
2023-01-22T18:53:22.583Z,1.70
2023-01-22T18:54:22.701Z,1.76
2023-01-22T18:55:22.796Z,1.85
2023-01-22T18:56:23.345Z,1.95
2023-01-22T18:57:22.966Z,2.11
2023-01-22T18:58:23.004Z,2.34
2023-01-22T18:59:25.426Z,2.43
2023-01-22T19:00:22.986Z,2.55
2023-01-22T19:01:22.988Z,2.65
2023-01-22T19:02:23.366Z,2.76
2023-01-22T19:03:22.924Z,2.57
2023-01-22T19:04:22.810Z,2.37
2023-01-22T19:05:22.947Z,2.40
2023-01-22T19:06:22.755Z,2.46
2023-01-22T19:07:22.746Z,2.50
2023-01-22T19:08:22.766Z,2.53
2023-01-22T19:09:23.704Z,2.46
2023-01-22T19:10:22.745Z,2.46
2023-01-22T19:11:23.044Z,2.52
2023-01-22T19:12:22.044Z,2.60
2023-01-22T19:13:22.743Z,2.63
2023-01-22T19:14:22.765Z,2.64
2023-01-22T19:15:22.906Z,2.61
2023-01-22T19:16:22.713Z,2.63
2023-01-22T19:17:22.687Z,2.58
2023-01-22T19:18:22.846Z,2.55
2023-01-22T19:19:22.586Z,2.50
2023-01-22T19:20:22.851Z,2.47
2023-01-22T19:21:22.545Z,2.47
2023-01-22T19:22:22.605Z,2.49
2023-01-22T19:23:22.446Z,2.47
2023-01-22T19:24:23.110Z,2.50
2023-01-22T19:25:22.828Z,2.58
2023-01-22T19:26:22.605Z,2.57
2023-01-22T19:27:22.867Z,2.60
2023-01-22T19:28:22.687Z,2.57
2023-01-22T19:29:23.045Z,2.60
2023-01-22T19:30:22.607Z,2.57
2023-01-22T19:31:22.681Z,2.52
2023-01-22T19:32:22.645Z,2.57
2023-01-22T19:33:22.465Z,2.61
2023-01-22T19:34:22.546Z,2.68
2023-01-22T19:35:22.676Z,2.71
2023-01-22T19:36:22.445Z,2.86
2023-01-22T19:37:22.488Z,2.96
2023-01-22T19:38:22.455Z,2.86
2023-01-22T19:39:22.715Z,2.82
2023-01-22T19:40:22.307Z,2.74
2023-01-22T19:41:22.606Z,2.73
2023-01-22T19:42:22.346Z,2.57
2023-01-22T19:43:24.367Z,2.60
2023-01-22T19:44:22.336Z,2.64
2023-01-22T19:45:22.648Z,2.65
2023-01-22T19:46:22.496Z,2.65
2023-01-22T19:47:22.527Z,2.67
2023-01-22T19:48:22.348Z,2.65
2023-01-22T19:49:24.109Z,2.60
2023-01-22T19:50:22.427Z,2.57
2023-01-22T19:51:22.333Z,2.58
2023-01-22T19:52:22.327Z,2.60
2023-01-22T19:53:22.245Z,2.58
2023-01-22T19:54:22.579Z,2.57
2023-01-22T19:55:22.347Z,2.52
2023-01-22T19:56:22.309Z,2.46
2023-01-22T19:57:22.149Z,2.52
2023-01-22T19:58:22.467Z,2.58
2023-01-22T19:59:22.228Z,2.53
2023-01-22T20:00:22.526Z,2.67
2023-01-22T20:01:22.265Z,2.79
2023-01-22T20:02:22.436Z,2.79
2023-01-22T20:03:22.245Z,2.70
2023-01-22T20:04:22.493Z,2.71
2023-01-22T20:05:22.521Z,2.70
2023-01-22T20:06:22.265Z,2.63
2023-01-22T20:07:22.168Z,2.61
2023-01-22T20:08:23.123Z,2.65
2023-01-22T20:09:22.158Z,2.82
2023-01-22T20:10:22.388Z,2.88
2023-01-22T20:11:22.290Z,2.86
2023-01-22T20:12:22.119Z,2.89
2023-01-22T20:13:22.146Z,2.89
2023-01-22T20:14:22.158Z,2.83
2023-01-22T20:15:22.694Z,2.81
2023-01-22T20:16:24.017Z,2.79
2023-01-22T20:17:22.207Z,2.74
2023-01-22T20:18:22.894Z,2.64
2023-01-22T20:19:22.189Z,2.50
2023-01-22T20:20:22.129Z,2.49
2023-01-22T20:21:22.365Z,2.47
2023-01-22T20:22:22.127Z,2.40
2023-01-22T20:23:21.785Z,2.31
2023-01-22T20:24:22.136Z,2.34
2023-01-22T20:25:22.373Z,2.35
2023-01-22T20:26:22.486Z,2.35
2023-01-22T20:27:23.729Z,2.37
2023-01-22T20:28:22.105Z,2.40
2023-01-22T20:29:21.848Z,2.42
2023-01-22T20:30:21.986Z,2.40
2023-01-22T20:31:22.158Z,2.46
2023-01-22T20:32:22.087Z,2.43
2023-01-22T20:33:21.967Z,2.42
2023-01-22T20:34:21.927Z,2.40
2023-01-22T20:35:21.929Z,2.45
2023-01-22T20:36:22.021Z,2.39
2023-01-22T20:37:21.992Z,2.40
2023-01-22T20:38:21.891Z,2.40
2023-01-22T20:39:21.946Z,2.37
2023-01-22T20:40:21.789Z,2.39
2023-01-22T20:41:21.995Z,2.34
2023-01-22T20:42:21.749Z,2.34
2023-01-22T20:43:21.992Z,2.34